< < Back
Terminal Aerodrome Forecast


Current Version              Previous Versions:   1  2  3  4  5  6  7  8  9  

Terminal Aerodrome Forecast

490
FTUS44 KBMX 061541 AAA
TAFANB
TAF AMD
KANB 061541Z 0616/0712 25008KT P6SM BKN040
     FM070600 00000KT P6SM SKC=

Latest METAR

516
SAUS70 KWBC 070600
MTRANB
METAR KANB 070553Z AUTO 00000KT 5SM BR CLR 22/21 A3013 RMK AO2 SLP195
T02220211 10278 20222 403000222 50004


USA.gov is the U.S. government's official web portal to all federal, state and local government web resources and services.